sensor_id;sensor_type;location;lat;lon;timestamp;P1;durP1;ratioP1;P2;durP2;ratioP2
22963;SDS011;11648;49.306;6.934;2022-10-16T00:01:18;2.20;;;0.60;;
22963;SDS011;11648;49.306;6.934;2022-10-16T00:03:47;2.13;;;0.60;;
22963;SDS011;11648;49.306;6.934;2022-10-16T00:06:15;1.10;;;0.50;;
22963;SDS011;11648;49.306;6.934;2022-10-16T00:08:43;1.40;;;0.50;;
22963;SDS011;11648;49.306;6.934;2022-10-16T00:11:12;1.90;;;0.40;;
22963;SDS011;11648;49.306;6.934;2022-10-16T00:13:44;2.50;;;0.63;;
22963;SDS011;11648;49.306;6.934;2022-10-16T00:16:12;2.43;;;0.80;;
22963;SDS011;11648;49.306;6.934;2022-10-16T00:18:40;2.23;;;0.43;;
22963;SDS011;11648;49.306;6.934;2022-10-16T00:24:02;1.70;;;0.50;;
22963;SDS011;11648;49.306;6.934;2022-10-16T00:26:35;0.93;;;0.50;;
22963;SDS011;11648;49.306;6.934;2022-10-16T00:29:03;1.77;;;0.50;;
22963;SDS011;11648;49.306;6.934;2022-10-16T00:31:30;1.17;;;0.50;;
22963;SDS011;11648;49.306;6.934;2022-10-16T00:33:57;1.13;;;0.60;;
22963;SDS011;11648;49.306;6.934;2022-10-16T00:36:25;2.03;;;0.50;;
22963;SDS011;11648;49.306;6.934;2022-10-16T00:38:53;1.53;;;0.60;;
22963;SDS011;11648;49.306;6.934;2022-10-16T00:41:22;1.60;;;0.60;;
22963;SDS011;11648;49.306;6.934;2022-10-16T00:49:21;2.97;;;0.70;;
22963;SDS011;11648;49.306;6.934;2022-10-16T00:51:49;2.37;;;0.50;;
22963;SDS011;11648;49.306;6.934;2022-10-16T00:54:24;2.67;;;0.60;;
22963;SDS011;11648;49.306;6.934;2022-10-16T00:56:56;4.00;;;0.60;;
22963;SDS011;11648;49.306;6.934;2022-10-16T00:59:30;4.63;;;0.80;;
22963;SDS011;11648;49.306;6.934;2022-10-16T01:01:59;2.50;;;1.10;;
22963;SDS011;11648;49.306;6.934;2022-10-16T01:04:28;3.87;;;1.00;;
22963;SDS011;11648;49.306;6.934;2022-10-16T01:07:08;1.80;;;0.90;;
22963;SDS011;11648;49.306;6.934;2022-10-16T01:12:32;3.60;;;1.13;;
22963;SDS011;11648;49.306;6.934;2022-10-16T01:15:30;2.50;;;1.00;;
22963;SDS011;11648;49.306;6.934;2022-10-16T01:18:28;2.30;;;1.10;;
22963;SDS011;11648;49.306;6.934;2022-10-16T01:21:00;2.70;;;1.23;;
22963;SDS011;11648;49.306;6.934;2022-10-16T01:29:39;2.00;;;1.00;;
22963;SDS011;11648;49.306;6.934;2022-10-16T01:35:09;4.40;;;1.20;;
22963;SDS011;11648;49.306;6.934;2022-10-16T01:40:26;4.47;;;0.80;;
22963;SDS011;11648;49.306;6.934;2022-10-16T01:43:02;3.97;;;1.00;;
22963;SDS011;11648;49.306;6.934;2022-10-16T01:45:36;2.43;;;0.90;;
22963;SDS011;11648;49.306;6.934;2022-10-16T01:48:04;1.27;;;0.70;;
22963;SDS011;11648;49.306;6.934;2022-10-16T01:50:35;1.90;;;0.70;;
22963;SDS011;11648;49.306;6.934;2022-10-16T01:53:06;4.50;;;0.87;;
22963;SDS011;11648;49.306;6.934;2022-10-16T01:55:36;4.30;;;0.80;;
22963;SDS011;11648;49.306;6.934;2022-10-16T01:58:10;3.17;;;0.80;;
22963;SDS011;11648;49.306;6.934;2022-10-16T02:00:39;3.73;;;0.63;;
22963;SDS011;11648;49.306;6.934;2022-10-16T02:03:10;3.33;;;0.80;;
22963;SDS011;11648;49.306;6.934;2022-10-16T02:05:40;1.17;;;0.60;;
22963;SDS011;11648;49.306;6.934;2022-10-16T02:08:11;2.10;;;0.70;;
22963;SDS011;11648;49.306;6.934;2022-10-16T02:10:38;3.33;;;0.90;;
22963;SDS011;11648;49.306;6.934;2022-10-16T02:13:19;1.67;;;1.00;;
22963;SDS011;11648;49.306;6.934;2022-10-16T02:15:52;2.53;;;0.90;;
22963;SDS011;11648;49.306;6.934;2022-10-16T02:18:20;2.63;;;0.90;;
22963;SDS011;11648;49.306;6.934;2022-10-16T02:23:35;2.33;;;0.60;;
22963;SDS011;11648;49.306;6.934;2022-10-16T02:26:12;1.37;;;0.70;;
22963;SDS011;11648;49.306;6.934;2022-10-16T02:28:45;1.70;;;0.87;;
22963;SDS011;11648;49.306;6.934;2022-10-16T02:31:16;3.17;;;0.90;;
22963;SDS011;11648;49.306;6.934;2022-10-16T02:33:49;2.90;;;0.90;;
22963;SDS011;11648;49.306;6.934;2022-10-16T02:36:19;1.30;;;0.80;;
22963;SDS011;11648;49.306;6.934;2022-10-16T02:38:46;1.40;;;0.73;;
22963;SDS011;11648;49.306;6.934;2022-10-16T02:41:13;2.67;;;1.00;;
22963;SDS011;11648;49.306;6.934;2022-10-16T02:43:40;1.53;;;0.87;;
22963;SDS011;11648;49.306;6.934;2022-10-16T02:46:07;2.30;;;0.80;;
22963;SDS011;11648;49.306;6.934;2022-10-16T02:48:34;3.70;;;0.70;;
22963;SDS011;11648;49.306;6.934;2022-10-16T02:51:01;2.10;;;0.60;;
22963;SDS011;11648;49.306;6.934;2022-10-16T02:53:27;2.90;;;0.50;;
22963;SDS011;11648;49.306;6.934;2022-10-16T02:55:54;2.30;;;0.50;;
22963;SDS011;11648;49.306;6.934;2022-10-16T02:58:21;1.23;;;0.40;;
22963;SDS011;11648;49.306;6.934;2022-10-16T03:00:48;2.87;;;0.50;;
22963;SDS011;11648;49.306;6.934;2022-10-16T03:03:15;1.60;;;0.60;;
22963;SDS011;11648;49.306;6.934;2022-10-16T03:05:42;2.43;;;0.70;;
22963;SDS011;11648;49.306;6.934;2022-10-16T03:08:12;2.37;;;0.70;;
22963;SDS011;11648;49.306;6.934;2022-10-16T03:10:39;1.57;;;0.50;;
22963;SDS011;11648;49.306;6.934;2022-10-16T03:13:06;2.17;;;0.57;;
22963;SDS011;11648;49.306;6.934;2022-10-16T03:15:33;1.93;;;0.50;;
22963;SDS011;11648;49.306;6.934;2022-10-16T03:17:59;2.17;;;0.40;;
22963;SDS011;11648;49.306;6.934;2022-10-16T03:20:26;1.67;;;0.70;;
22963;SDS011;11648;49.306;6.934;2022-10-16T03:22:53;2.83;;;0.60;;
22963;SDS011;11648;49.306;6.934;2022-10-16T03:25:19;2.13;;;0.53;;
22963;SDS011;11648;49.306;6.934;2022-10-16T03:27:46;3.10;;;0.50;;
22963;SDS011;11648;49.306;6.934;2022-10-16T03:30:13;1.23;;;0.40;;
22963;SDS011;11648;49.306;6.934;2022-10-16T03:32:40;3.23;;;0.50;;
22963;SDS011;11648;49.306;6.934;2022-10-16T03:35:07;2.00;;;0.43;;
22963;SDS011;11648;49.306;6.934;2022-10-16T03:37:34;1.43;;;0.40;;
22963;SDS011;11648;49.306;6.934;2022-10-16T03:40:00;1.93;;;0.40;;
22963;SDS011;11648;49.306;6.934;2022-10-16T03:42:27;2.43;;;0.67;;
22963;SDS011;11648;49.306;6.934;2022-10-16T03:44:54;1.70;;;0.80;;
22963;SDS011;11648;49.306;6.934;2022-10-16T03:47:20;3.27;;;1.00;;
22963;SDS011;11648;49.306;6.934;2022-10-16T03:49:50;3.83;;;1.10;;
22963;SDS011;11648;49.306;6.934;2022-10-16T03:52:16;2.53;;;0.70;;
22963;SDS011;11648;49.306;6.934;2022-10-16T03:54:44;2.53;;;1.17;;
22963;SDS011;11648;49.306;6.934;2022-10-16T03:57:11;2.30;;;0.90;;
22963;SDS011;11648;49.306;6.934;2022-10-16T03:59:38;3.60;;;1.30;;
22963;SDS011;11648;49.306;6.934;2022-10-16T04:02:04;2.90;;;1.27;;
22963;SDS011;11648;49.306;6.934;2022-10-16T04:04:31;3.23;;;1.03;;
22963;SDS011;11648;49.306;6.934;2022-10-16T04:06:58;1.40;;;0.50;;
22963;SDS011;11648;49.306;6.934;2022-10-16T04:09:24;1.47;;;0.67;;
22963;SDS011;11648;49.306;6.934;2022-10-16T04:11:51;2.53;;;0.50;;
22963;SDS011;11648;49.306;6.934;2022-10-16T04:14:18;1.60;;;0.60;;
22963;SDS011;11648;49.306;6.934;2022-10-16T04:16:44;2.23;;;0.70;;
22963;SDS011;11648;49.306;6.934;2022-10-16T04:19:11;3.30;;;0.60;;
22963;SDS011;11648;49.306;6.934;2022-10-16T04:21:38;2.20;;;0.90;;
22963;SDS011;11648;49.306;6.934;2022-10-16T04:24:05;1.43;;;0.40;;
22963;SDS011;11648;49.306;6.934;2022-10-16T04:26:31;3.23;;;0.60;;
22963;SDS011;11648;49.306;6.934;2022-10-16T04:28:58;1.00;;;0.50;;
22963;SDS011;11648;49.306;6.934;2022-10-16T04:31:25;1.60;;;0.50;;
22963;SDS011;11648;49.306;6.934;2022-10-16T04:33:51;3.63;;;0.80;;
22963;SDS011;11648;49.306;6.934;2022-10-16T04:36:18;3.53;;;0.60;;
22963;SDS011;11648;49.306;6.934;2022-10-16T04:38:45;1.40;;;0.70;;
22963;SDS011;11648;49.306;6.934;2022-10-16T04:41:11;2.50;;;0.83;;
22963;SDS011;11648;49.306;6.934;2022-10-16T04:43:38;3.50;;;1.20;;
22963;SDS011;11648;49.306;6.934;2022-10-16T04:46:05;1.50;;;0.80;;
22963;SDS011;11648;49.306;6.934;2022-10-16T04:48:32;1.80;;;0.80;;
22963;SDS011;11648;49.306;6.934;2022-10-16T04:50:59;2.00;;;0.80;;
22963;SDS011;11648;49.306;6.934;2022-10-16T04:53:26;1.63;;;0.73;;
22963;SDS011;11648;49.306;6.934;2022-10-16T04:55:53;2.37;;;1.00;;
22963;SDS011;11648;49.306;6.934;2022-10-16T04:58:19;2.13;;;0.80;;
22963;SDS011;11648;49.306;6.934;2022-10-16T05:00:46;1.63;;;0.80;;
22963;SDS011;11648;49.306;6.934;2022-10-16T05:03:13;1.03;;;0.60;;
22963;SDS011;11648;49.306;6.934;2022-10-16T05:05:44;2.53;;;0.60;;
22963;SDS011;11648;49.306;6.934;2022-10-16T05:08:12;2.10;;;0.50;;
22963;SDS011;11648;49.306;6.934;2022-10-16T05:10:43;1.27;;;0.63;;
22963;SDS011;11648;49.306;6.934;2022-10-16T05:13:11;1.63;;;0.40;;
22963;SDS011;11648;49.306;6.934;2022-10-16T05:15:37;4.10;;;0.50;;
22963;SDS011;11648;49.306;6.934;2022-10-16T05:18:04;1.90;;;0.30;;
22963;SDS011;11648;49.306;6.934;2022-10-16T05:20:31;4.50;;;0.63;;
22963;SDS011;11648;49.306;6.934;2022-10-16T05:22:58;3.17;;;0.50;;
22963;SDS011;11648;49.306;6.934;2022-10-16T05:25:25;3.10;;;0.67;;
22963;SDS011;11648;49.306;6.934;2022-10-16T05:27:52;1.80;;;0.63;;
22963;SDS011;11648;49.306;6.934;2022-10-16T05:30:18;3.37;;;0.50;;
22963;SDS011;11648;49.306;6.934;2022-10-16T05:32:50;3.33;;;0.50;;
22963;SDS011;11648;49.306;6.934;2022-10-16T05:35:18;2.80;;;0.50;;
22963;SDS011;11648;49.306;6.934;2022-10-16T05:37:46;1.47;;;0.50;;
22963;SDS011;11648;49.306;6.934;2022-10-16T05:40:13;3.10;;;0.50;;
22963;SDS011;11648;49.306;6.934;2022-10-16T05:42:41;1.00;;;0.60;;
22963;SDS011;11648;49.306;6.934;2022-10-16T05:45:08;2.27;;;0.83;;
22963;SDS011;11648;49.306;6.934;2022-10-16T05:47:37;1.47;;;0.90;;
22963;SDS011;11648;49.306;6.934;2022-10-16T05:50:04;2.87;;;0.90;;
22963;SDS011;11648;49.306;6.934;2022-10-16T05:52:31;2.30;;;1.00;;
22963;SDS011;11648;49.306;6.934;2022-10-16T05:54:57;2.07;;;1.00;;
22963;SDS011;11648;49.306;6.934;2022-10-16T05:57:24;2.07;;;0.90;;
22963;SDS011;11648;49.306;6.934;2022-10-16T05:59:51;4.70;;;1.10;;
22963;SDS011;11648;49.306;6.934;2022-10-16T06:02:18;3.80;;;1.13;;
22963;SDS011;11648;49.306;6.934;2022-10-16T06:04:45;2.30;;;1.00;;
22963;SDS011;11648;49.306;6.934;2022-10-16T06:07:11;1.93;;;1.03;;
22963;SDS011;11648;49.306;6.934;2022-10-16T06:09:38;2.50;;;1.00;;
22963;SDS011;11648;49.306;6.934;2022-10-16T06:12:05;3.80;;;1.13;;
22963;SDS011;11648;49.306;6.934;2022-10-16T06:14:31;4.00;;;1.23;;
22963;SDS011;11648;49.306;6.934;2022-10-16T06:16:58;2.50;;;1.40;;
22963;SDS011;11648;49.306;6.934;2022-10-16T06:19:25;4.60;;;1.53;;
22963;SDS011;11648;49.306;6.934;2022-10-16T06:21:51;5.37;;;1.63;;
22963;SDS011;11648;49.306;6.934;2022-10-16T06:24:18;3.30;;;1.40;;
22963;SDS011;11648;49.306;6.934;2022-10-16T06:26:45;2.97;;;1.67;;
22963;SDS011;11648;49.306;6.934;2022-10-16T06:29:11;3.83;;;1.50;;
22963;SDS011;11648;49.306;6.934;2022-10-16T06:31:38;2.90;;;1.47;;
22963;SDS011;11648;49.306;6.934;2022-10-16T06:34:05;2.87;;;1.30;;
22963;SDS011;11648;49.306;6.934;2022-10-16T06:36:35;3.60;;;2.13;;
22963;SDS011;11648;49.306;6.934;2022-10-16T06:39:03;5.20;;;1.80;;
22963;SDS011;11648;49.306;6.934;2022-10-16T06:41:31;3.63;;;1.57;;
22963;SDS011;11648;49.306;6.934;2022-10-16T06:44:08;4.60;;;1.80;;
22963;SDS011;11648;49.306;6.934;2022-10-16T06:46:35;3.90;;;2.03;;
22963;SDS011;11648;49.306;6.934;2022-10-16T06:49:02;5.07;;;1.90;;
22963;SDS011;11648;49.306;6.934;2022-10-16T06:51:29;3.33;;;1.47;;
22963;SDS011;11648;49.306;6.934;2022-10-16T06:53:57;4.57;;;1.60;;
22963;SDS011;11648;49.306;6.934;2022-10-16T06:56:30;9.00;;;8.13;;
22963;SDS011;11648;49.306;6.934;2022-10-16T06:58:57;4.73;;;3.20;;
22963;SDS011;11648;49.306;6.934;2022-10-16T07:01:25;16.50;;;12.70;;
22963;SDS011;11648;49.306;6.934;2022-10-16T07:03:54;12.87;;;11.50;;
22963;SDS011;11648;49.306;6.934;2022-10-16T07:06:21;10.50;;;9.27;;
22963;SDS011;11648;49.306;6.934;2022-10-16T07:08:50;8.17;;;7.17;;
22963;SDS011;11648;49.306;6.934;2022-10-16T07:11:18;4.13;;;2.10;;
22963;SDS011;11648;49.306;6.934;2022-10-16T07:13:46;6.50;;;5.47;;
22963;SDS011;11648;49.306;6.934;2022-10-16T07:16:21;6.47;;;5.57;;
22963;SDS011;11648;49.306;6.934;2022-10-16T07:18:49;13.97;;;11.90;;
22963;SDS011;11648;49.306;6.934;2022-10-16T07:21:21;16.47;;;10.90;;
22963;SDS011;11648;49.306;6.934;2022-10-16T07:23:52;11.90;;;10.63;;
22963;SDS011;11648;49.306;6.934;2022-10-16T07:26:23;5.93;;;4.30;;
22963;SDS011;11648;49.306;6.934;2022-10-16T07:28:51;4.17;;;2.90;;
22963;SDS011;11648;49.306;6.934;2022-10-16T07:31:19;3.50;;;2.30;;
22963;SDS011;11648;49.306;6.934;2022-10-16T07:33:46;3.83;;;2.30;;
22963;SDS011;11648;49.306;6.934;2022-10-16T07:36:15;5.60;;;2.70;;
22963;SDS011;11648;49.306;6.934;2022-10-16T07:38:44;3.90;;;2.50;;
22963;SDS011;11648;49.306;6.934;2022-10-16T07:41:12;5.17;;;4.40;;
22963;SDS011;11648;49.306;6.934;2022-10-16T07:43:45;4.97;;;3.30;;
22963;SDS011;11648;49.306;6.934;2022-10-16T07:46:12;6.13;;;3.20;;
22963;SDS011;11648;49.306;6.934;2022-10-16T07:48:39;4.87;;;2.20;;
22963;SDS011;11648;49.306;6.934;2022-10-16T07:51:07;3.93;;;2.30;;
22963;SDS011;11648;49.306;6.934;2022-10-16T07:53:34;3.10;;;1.90;;
22963;SDS011;11648;49.306;6.934;2022-10-16T07:56:03;2.60;;;1.83;;
22963;SDS011;11648;49.306;6.934;2022-10-16T07:58:32;5.13;;;3.83;;
22963;SDS011;11648;49.306;6.934;2022-10-16T08:01:03;4.57;;;2.30;;
22963;SDS011;11648;49.306;6.934;2022-10-16T08:03:31;4.67;;;2.50;;
22963;SDS011;11648;49.306;6.934;2022-10-16T08:05:58;3.83;;;2.00;;
22963;SDS011;11648;49.306;6.934;2022-10-16T08:08:26;4.27;;;1.93;;
22963;SDS011;11648;49.306;6.934;2022-10-16T08:10:53;5.27;;;2.37;;
22963;SDS011;11648;49.306;6.934;2022-10-16T08:13:23;3.50;;;1.70;;
22963;SDS011;11648;49.306;6.934;2022-10-16T08:15:50;6.83;;;5.27;;
22963;SDS011;11648;49.306;6.934;2022-10-16T08:18:16;4.43;;;2.27;;
22963;SDS011;11648;49.306;6.934;2022-10-16T08:20:43;5.50;;;3.37;;
22963;SDS011;11648;49.306;6.934;2022-10-16T08:23:13;4.70;;;2.20;;
22963;SDS011;11648;49.306;6.934;2022-10-16T08:25:40;3.33;;;2.30;;
22963;SDS011;11648;49.306;6.934;2022-10-16T08:28:08;4.33;;;2.60;;
22963;SDS011;11648;49.306;6.934;2022-10-16T08:30:36;5.17;;;2.30;;
22963;SDS011;11648;49.306;6.934;2022-10-16T08:33:03;3.50;;;2.40;;
22963;SDS011;11648;49.306;6.934;2022-10-16T08:35:30;4.60;;;2.87;;
22963;SDS011;11648;49.306;6.934;2022-10-16T08:37:56;5.70;;;1.90;;
22963;SDS011;11648;49.306;6.934;2022-10-16T08:51:23;8.83;;;1.60;;
22963;SDS011;11648;49.306;6.934;2022-10-16T08:53:56;4.33;;;1.60;;
22963;SDS011;11648;49.306;6.934;2022-10-16T08:56:28;3.23;;;1.70;;
22963;SDS011;11648;49.306;6.934;2022-10-16T08:58:55;3.90;;;1.37;;
22963;SDS011;11648;49.306;6.934;2022-10-16T09:01:35;7.43;;;1.73;;
22963;SDS011;11648;49.306;6.934;2022-10-16T09:07:05;5.55;;;1.60;;
22963;SDS011;11648;49.306;6.934;2022-10-16T09:12:39;5.07;;;2.00;;
22963;SDS011;11648;49.306;6.934;2022-10-16T09:23:44;4.32;;;2.90;;
22963;SDS011;11648;49.306;6.934;2022-10-16T09:26:12;7.15;;;3.08;;
22963;SDS011;11648;49.306;6.934;2022-10-16T09:28:40;8.93;;;6.38;;
22963;SDS011;11648;49.306;6.934;2022-10-16T09:31:11;4.35;;;3.00;;
22963;SDS011;11648;49.306;6.934;2022-10-16T09:33:43;11.52;;;7.82;;
22963;SDS011;11648;49.306;6.934;2022-10-16T09:36:14;14.70;;;12.32;;
22963;SDS011;11648;49.306;6.934;2022-10-16T09:38:41;4.32;;;1.60;;
22963;SDS011;11648;49.306;6.934;2022-10-16T09:46:33;5.25;;;3.03;;
22963;SDS011;11648;49.306;6.934;2022-10-16T09:49:02;6.32;;;3.83;;
22963;SDS011;11648;49.306;6.934;2022-10-16T09:51:34;4.82;;;2.80;;
22963;SDS011;11648;49.306;6.934;2022-10-16T09:56:37;5.97;;;2.50;;
22963;SDS011;11648;49.306;6.934;2022-10-16T09:59:12;4.97;;;1.90;;
22963;SDS011;11648;49.306;6.934;2022-10-16T10:01:44;3.28;;;1.30;;
22963;SDS011;11648;49.306;6.934;2022-10-16T10:04:19;4.05;;;1.70;;
22963;SDS011;11648;49.306;6.934;2022-10-16T10:17:56;4.60;;;2.95;;
22963;SDS011;11648;49.306;6.934;2022-10-16T10:20:28;5.90;;;3.33;;
22963;SDS011;11648;49.306;6.934;2022-10-16T10:22:55;5.35;;;1.67;;
22963;SDS011;11648;49.306;6.934;2022-10-16T10:25:25;4.30;;;1.88;;
22963;SDS011;11648;49.306;6.934;2022-10-16T10:31:21;7.43;;;5.93;;
22963;SDS011;11648;49.306;6.934;2022-10-16T10:34:45;6.72;;;3.92;;
22963;SDS011;11648;49.306;6.934;2022-10-16T10:37:07;5.50;;;2.10;;
22963;SDS011;11648;49.306;6.934;2022-10-16T10:39:47;3.53;;;1.85;;
22963;SDS011;11648;49.306;6.934;2022-10-16T10:42:41;4.55;;;1.85;;
22963;SDS011;11648;49.306;6.934;2022-10-16T10:47:47;3.67;;;1.70;;
22963;SDS011;11648;49.306;6.934;2022-10-16T10:50:32;3.60;;;1.80;;
22963;SDS011;11648;49.306;6.934;2022-10-16T11:01:26;5.20;;;1.80;;
22963;SDS011;11648;49.306;6.934;2022-10-16T11:09:20;4.33;;;1.57;;
22963;SDS011;11648;49.306;6.934;2022-10-16T11:14:34;3.07;;;1.53;;
22963;SDS011;11648;49.306;6.934;2022-10-16T11:17:10;6.47;;;1.60;;
22963;SDS011;11648;49.306;6.934;2022-10-16T11:27:36;3.10;;;1.80;;
22963;SDS011;11648;49.306;6.934;2022-10-16T11:30:22;4.07;;;1.50;;
22963;SDS011;11648;49.306;6.934;2022-10-16T11:33:08;4.70;;;1.60;;
22963;SDS011;11648;49.306;6.934;2022-10-16T11:43:49;5.50;;;2.07;;
22963;SDS011;11648;49.306;6.934;2022-10-16T11:46:24;5.00;;;1.57;;
22963;SDS011;11648;49.306;6.934;2022-10-16T11:48:59;4.57;;;1.80;;
22963;SDS011;11648;49.306;6.934;2022-10-16T11:54:38;4.23;;;2.20;;
22963;SDS011;11648;49.306;6.934;2022-10-16T11:57:13;4.10;;;2.23;;
22963;SDS011;11648;49.306;6.934;2022-10-16T11:59:48;4.40;;;2.00;;
22963;SDS011;11648;49.306;6.934;2022-10-16T12:08:06;3.80;;;2.20;;
22963;SDS011;11648;49.306;6.934;2022-10-16T12:10:38;5.40;;;2.20;;
22963;SDS011;11648;49.306;6.934;2022-10-16T12:18:39;4.67;;;1.80;;
22963;SDS011;11648;49.306;6.934;2022-10-16T12:21:08;4.73;;;2.07;;
22963;SDS011;11648;49.306;6.934;2022-10-16T12:23:36;4.80;;;2.00;;
22963;SDS011;11648;49.306;6.934;2022-10-16T12:26:05;4.73;;;1.87;;
22963;SDS011;11648;49.306;6.934;2022-10-16T12:28:32;3.13;;;1.93;;
22963;SDS011;11648;49.306;6.934;2022-10-16T12:31:03;6.40;;;1.80;;
22963;SDS011;11648;49.306;6.934;2022-10-16T12:33:33;3.37;;;1.90;;
22963;SDS011;11648;49.306;6.934;2022-10-16T12:36:02;4.40;;;1.80;;
22963;SDS011;11648;49.306;6.934;2022-10-16T12:38:36;2.70;;;1.80;;
22963;SDS011;11648;49.306;6.934;2022-10-16T12:41:11;3.77;;;1.70;;
22963;SDS011;11648;49.306;6.934;2022-10-16T12:43:41;7.50;;;1.83;;
22963;SDS011;11648;49.306;6.934;2022-10-16T12:48:37;4.13;;;1.80;;
22963;SDS011;11648;49.306;6.934;2022-10-16T12:51:25;7.73;;;4.00;;
22963;SDS011;11648;49.306;6.934;2022-10-16T12:54:01;5.53;;;3.43;;
22963;SDS011;11648;49.306;6.934;2022-10-16T13:16:13;6.80;;;2.17;;
22963;SDS011;11648;49.306;6.934;2022-10-16T13:19:08;5.63;;;1.90;;
22963;SDS011;11648;49.306;6.934;2022-10-16T13:21:49;6.60;;;3.27;;
22963;SDS011;11648;49.306;6.934;2022-10-16T13:24:34;13.43;;;7.57;;
22963;SDS011;11648;49.306;6.934;2022-10-16T13:30:01;9.07;;;2.80;;
22963;SDS011;11648;49.306;6.934;2022-10-16T13:32:38;4.60;;;2.20;;
22963;SDS011;11648;49.306;6.934;2022-10-16T13:35:18;6.40;;;2.40;;
22963;SDS011;11648;49.306;6.934;2022-10-16T13:38:14;8.93;;;2.27;;
22963;SDS011;11648;49.306;6.934;2022-10-16T13:40:56;4.10;;;2.10;;
22963;SDS011;11648;49.306;6.934;2022-10-16T13:43:37;5.13;;;1.90;;
22963;SDS011;11648;49.306;6.934;2022-10-16T13:46:24;5.47;;;2.93;;
22963;SDS011;11648;49.306;6.934;2022-10-16T13:49:01;4.77;;;3.03;;
22963;SDS011;11648;49.306;6.934;2022-10-16T13:51:38;6.00;;;2.30;;
22963;SDS011;11648;49.306;6.934;2022-10-16T13:54:04;5.70;;;3.83;;
22963;SDS011;11648;49.306;6.934;2022-10-16T13:56:32;6.43;;;3.30;;
22963;SDS011;11648;49.306;6.934;2022-10-16T13:59:06;4.37;;;3.13;;
22963;SDS011;11648;49.306;6.934;2022-10-16T14:01:48;5.77;;;2.10;;
22963;SDS011;11648;49.306;6.934;2022-10-16T14:04:17;5.27;;;2.43;;
22963;SDS011;11648;49.306;6.934;2022-10-16T14:06:45;2.80;;;2.30;;
22963;SDS011;11648;49.306;6.934;2022-10-16T14:09:21;3.50;;;2.20;;
22963;SDS011;11648;49.306;6.934;2022-10-16T14:11:58;6.27;;;2.10;;
22963;SDS011;11648;49.306;6.934;2022-10-16T14:14:33;3.70;;;2.20;;
22963;SDS011;11648;49.306;6.934;2022-10-16T14:17:06;5.10;;;2.07;;
22963;SDS011;11648;49.306;6.934;2022-10-16T14:19:40;6.30;;;2.10;;
22963;SDS011;11648;49.306;6.934;2022-10-16T14:25:25;5.23;;;2.23;;
22963;SDS011;11648;49.306;6.934;2022-10-16T14:27:58;5.07;;;2.20;;
22963;SDS011;11648;49.306;6.934;2022-10-16T14:30:33;4.73;;;2.17;;
22963;SDS011;11648;49.306;6.934;2022-10-16T14:33:03;5.77;;;2.17;;
22963;SDS011;11648;49.306;6.934;2022-10-16T14:35:46;5.73;;;2.27;;
22963;SDS011;11648;49.306;6.934;2022-10-16T14:38:27;3.73;;;2.57;;
22963;SDS011;11648;49.306;6.934;2022-10-16T14:40:56;5.80;;;2.30;;
22963;SDS011;11648;49.306;6.934;2022-10-16T14:46:15;4.77;;;2.23;;
22963;SDS011;11648;49.306;6.934;2022-10-16T14:48:46;8.40;;;2.70;;
22963;SDS011;11648;49.306;6.934;2022-10-16T14:51:16;7.30;;;2.57;;
22963;SDS011;11648;49.306;6.934;2022-10-16T14:53:45;4.23;;;2.40;;
22963;SDS011;11648;49.306;6.934;2022-10-16T14:58:46;5.90;;;2.60;;
22963;SDS011;11648;49.306;6.934;2022-10-16T15:01:14;7.63;;;2.90;;
22963;SDS011;11648;49.306;6.934;2022-10-16T15:03:40;10.13;;;2.60;;
22963;SDS011;11648;49.306;6.934;2022-10-16T15:06:11;6.27;;;2.93;;
22963;SDS011;11648;49.306;6.934;2022-10-16T15:08:39;8.00;;;2.97;;
22963;SDS011;11648;49.306;6.934;2022-10-16T15:11:16;8.07;;;3.10;;
22963;SDS011;11648;49.306;6.934;2022-10-16T15:13:44;4.43;;;2.57;;
22963;SDS011;11648;49.306;6.934;2022-10-16T15:16:12;5.30;;;2.97;;
22963;SDS011;11648;49.306;6.934;2022-10-16T15:18:40;7.63;;;2.90;;
22963;SDS011;11648;49.306;6.934;2022-10-16T15:21:07;5.67;;;2.77;;
22963;SDS011;11648;49.306;6.934;2022-10-16T15:23:34;8.83;;;3.10;;
22963;SDS011;11648;49.306;6.934;2022-10-16T15:26:00;7.53;;;3.07;;
22963;SDS011;11648;49.306;6.934;2022-10-16T15:28:27;8.23;;;2.90;;
22963;SDS011;11648;49.306;6.934;2022-10-16T15:30:54;5.83;;;3.20;;
22963;SDS011;11648;49.306;6.934;2022-10-16T15:33:26;7.13;;;3.00;;
22963;SDS011;11648;49.306;6.934;2022-10-16T15:36:01;7.17;;;3.20;;
22963;SDS011;11648;49.306;6.934;2022-10-16T15:38:29;8.50;;;3.00;;
22963;SDS011;11648;49.306;6.934;2022-10-16T15:40:56;7.77;;;2.93;;
22963;SDS011;11648;49.306;6.934;2022-10-16T15:43:23;7.00;;;2.90;;
22963;SDS011;11648;49.306;6.934;2022-10-16T15:46:01;6.93;;;3.60;;
22963;SDS011;11648;49.306;6.934;2022-10-16T15:48:32;14.30;;;9.57;;
22963;SDS011;11648;49.306;6.934;2022-10-16T15:50:59;9.13;;;5.67;;
22963;SDS011;11648;49.306;6.934;2022-10-16T15:53:30;9.87;;;5.57;;
22963;SDS011;11648;49.306;6.934;2022-10-16T15:55:57;8.57;;;6.73;;
22963;SDS011;11648;49.306;6.934;2022-10-16T15:58:23;15.70;;;13.03;;
22963;SDS011;11648;49.306;6.934;2022-10-16T16:00:54;9.43;;;5.43;;
22963;SDS011;11648;49.306;6.934;2022-10-16T16:03:22;9.70;;;6.47;;
22963;SDS011;11648;49.306;6.934;2022-10-16T16:05:49;11.80;;;5.20;;
22963;SDS011;11648;49.306;6.934;2022-10-16T16:08:16;8.53;;;4.53;;
22963;SDS011;11648;49.306;6.934;2022-10-16T16:10:43;12.27;;;4.13;;
22963;SDS011;11648;49.306;6.934;2022-10-16T16:13:10;7.73;;;5.30;;
22963;SDS011;11648;49.306;6.934;2022-10-16T16:15:40;7.60;;;4.80;;
22963;SDS011;11648;49.306;6.934;2022-10-16T16:18:07;7.27;;;4.20;;
22963;SDS011;11648;49.306;6.934;2022-10-16T16:20:35;7.90;;;5.10;;
22963;SDS011;11648;49.306;6.934;2022-10-16T16:23:02;7.17;;;4.23;;
22963;SDS011;11648;49.306;6.934;2022-10-16T16:25:29;9.63;;;3.80;;
22963;SDS011;11648;49.306;6.934;2022-10-16T16:27:55;6.20;;;3.40;;
22963;SDS011;11648;49.306;6.934;2022-10-16T16:30:22;5.73;;;3.57;;
22963;SDS011;11648;49.306;6.934;2022-10-16T16:32:53;7.43;;;3.90;;
22963;SDS011;11648;49.306;6.934;2022-10-16T16:35:20;6.07;;;3.80;;
22963;SDS011;11648;49.306;6.934;2022-10-16T16:37:47;8.30;;;4.10;;
22963;SDS011;11648;49.306;6.934;2022-10-16T16:40:14;5.50;;;3.70;;
22963;SDS011;11648;49.306;6.934;2022-10-16T16:42:41;7.50;;;4.70;;
22963;SDS011;11648;49.306;6.934;2022-10-16T16:45:08;6.27;;;5.00;;
22963;SDS011;11648;49.306;6.934;2022-10-16T16:47:35;6.80;;;4.90;;
22963;SDS011;11648;49.306;6.934;2022-10-16T16:50:01;8.67;;;5.10;;
22963;SDS011;11648;49.306;6.934;2022-10-16T16:52:31;5.70;;;4.50;;
22963;SDS011;11648;49.306;6.934;2022-10-16T16:54:57;7.83;;;4.50;;
22963;SDS011;11648;49.306;6.934;2022-10-16T16:57:24;11.50;;;4.77;;
22963;SDS011;11648;49.306;6.934;2022-10-16T16:59:51;5.53;;;4.67;;
22963;SDS011;11648;49.306;6.934;2022-10-16T17:02:18;7.70;;;4.53;;
22963;SDS011;11648;49.306;6.934;2022-10-16T17:04:45;6.57;;;4.93;;
22963;SDS011;11648;49.306;6.934;2022-10-16T17:07:12;8.73;;;5.17;;
22963;SDS011;11648;49.306;6.934;2022-10-16T17:09:38;10.40;;;5.83;;
22963;SDS011;11648;49.306;6.934;2022-10-16T17:12:05;10.00;;;7.10;;
22963;SDS011;11648;49.306;6.934;2022-10-16T17:14:32;9.13;;;6.73;;
22963;SDS011;11648;49.306;6.934;2022-10-16T17:16:58;7.90;;;5.70;;
22963;SDS011;11648;49.306;6.934;2022-10-16T17:19:25;8.77;;;5.63;;
22963;SDS011;11648;49.306;6.934;2022-10-16T17:21:52;10.37;;;5.83;;
22963;SDS011;11648;49.306;6.934;2022-10-16T17:24:19;7.97;;;4.80;;
22963;SDS011;11648;49.306;6.934;2022-10-16T17:26:47;7.03;;;5.40;;
22963;SDS011;11648;49.306;6.934;2022-10-16T17:29:15;11.03;;;5.93;;
22963;SDS011;11648;49.306;6.934;2022-10-16T17:31:43;7.93;;;5.60;;
22963;SDS011;11648;49.306;6.934;2022-10-16T17:34:11;10.07;;;5.00;;
22963;SDS011;11648;49.306;6.934;2022-10-16T17:36:39;8.17;;;4.97;;
22963;SDS011;11648;49.306;6.934;2022-10-16T17:39:13;7.90;;;5.00;;